createdAt,value
2023-01-07T00:03:00.031Z,33.60
2023-01-07T00:06:02.815Z,35.50
2023-01-07T00:09:05.552Z,31.50
2023-01-07T00:12:07.215Z,32.70
2023-01-07T00:15:09.082Z,32.30
2023-01-07T00:18:10.743Z,34.30
2023-01-07T00:21:16.516Z,35.60
2023-01-07T00:24:18.579Z,34.30
2023-01-07T00:27:20.435Z,34.70
2023-01-07T00:30:21.987Z,33.50
2023-01-07T00:33:23.647Z,36.50
2023-01-07T00:36:26.946Z,35.80
2023-01-07T00:39:28.519Z,34.50
2023-01-07T00:42:48.644Z,29.60
2023-01-07T00:45:50.265Z,34.50
2023-01-07T00:48:51.870Z,32.80
2023-01-07T00:51:53.663Z,32.70
2023-01-07T00:54:55.339Z,34.20
2023-01-07T00:57:57.514Z,34.00
2023-01-07T01:01:00.352Z,34.30
2023-01-07T01:04:02.691Z,32.50
2023-01-07T01:07:04.340Z,36.00
2023-01-07T01:10:07.676Z,37.60
2023-01-07T01:13:10.743Z,37.60
2023-01-07T01:16:14.488Z,35.80
2023-01-07T01:19:16.199Z,32.10
2023-01-07T01:22:17.947Z,33.80
2023-01-07T01:25:19.813Z,30.50
2023-01-07T01:28:21.473Z,34.60
2023-01-07T01:31:23.306Z,35.20
2023-01-07T01:34:26.230Z,34.50
2023-01-07T01:37:28.397Z,30.70
2023-01-07T01:40:31.490Z,35.70
2023-01-07T01:43:35.522Z,33.40
2023-01-07T01:46:41.525Z,34.00
2023-01-07T01:49:53.263Z,31.80
2023-01-07T01:52:57.266Z,33.40
2023-01-07T01:56:01.293Z,34.60
2023-01-07T01:59:09.539Z,32.30
2023-01-07T02:02:12.879Z,32.20
2023-01-07T02:05:15.691Z,36.20
2023-01-07T02:08:22.993Z,36.20
2023-01-07T02:11:35.704Z,31.70
2023-01-07T02:14:56.363Z,32.10
2023-01-07T02:17:57.971Z,30.60
2023-01-07T02:21:19.083Z,32.90
2023-01-07T02:24:33.654Z,37.20
2023-01-07T02:27:54.348Z,32.70
2023-01-07T02:30:58.980Z,35.70
2023-01-07T02:34:13.753Z,32.10
2023-01-07T02:37:24.247Z,35.50
2023-01-07T02:40:30.889Z,34.20
2023-01-07T02:43:38.795Z,35.20
2023-01-07T02:46:54.620Z,36.10
2023-01-07T02:49:56.372Z,32.60
2023-01-07T02:52:58.110Z,34.80
2023-01-07T02:56:13.665Z,36.80
2023-01-07T02:59:24.173Z,33.00
2023-01-07T03:02:25.923Z,37.70
2023-01-07T03:05:33.975Z,32.70
2023-01-07T03:08:46.250Z,36.60
2023-01-07T03:11:53.827Z,34.60
2023-01-07T03:14:59.194Z,35.00
2023-01-07T03:18:00.945Z,35.80
2023-01-07T03:21:08.650Z,32.80
2023-01-07T03:24:10.311Z,37.80
2023-01-07T03:27:12.394Z,34.00
2023-01-07T03:30:16.335Z,31.50
2023-01-07T03:33:21.741Z,30.60
2023-01-07T03:36:25.760Z,36.40
2023-01-07T03:39:30.423Z,34.10
2023-01-07T03:42:41.519Z,43.20
2023-01-07T03:45:53.511Z,38.60
2023-01-07T03:48:55.436Z,33.90
2023-01-07T03:51:58.059Z,33.90
2023-01-07T03:55:00.600Z,33.50
2023-01-07T03:58:02.872Z,33.20
2023-01-07T04:01:04.732Z,36.30
2023-01-07T04:04:08.266Z,35.00
2023-01-07T04:07:10.149Z,31.80
2023-01-07T04:10:12.885Z,33.10
2023-01-07T04:13:20.588Z,31.80
2023-01-07T04:16:23.410Z,35.50
2023-01-07T04:19:25.050Z,34.90
2023-01-07T04:22:26.693Z,31.90
2023-01-07T04:25:28.555Z,34.20
2023-01-07T04:28:30.582Z,31.50
2023-01-07T04:31:33.208Z,32.40
2023-01-07T04:34:35.275Z,33.50
2023-01-07T04:37:38.161Z,37.90
2023-01-07T04:40:40.576Z,34.10
2023-01-07T04:43:42.201Z,30.90
2023-01-07T04:46:44.308Z,34.70
2023-01-07T04:49:46.137Z,33.40
2023-01-07T04:52:47.866Z,29.20
2023-01-07T04:55:50.373Z,37.60
2023-01-07T04:58:52.547Z,34.30
2023-01-07T05:01:54.296Z,34.30
2023-01-07T05:04:57.255Z,28.80
2023-01-07T05:07:58.974Z,34.80
2023-01-07T05:11:04.929Z,34.60
2023-01-07T05:17:08.802Z,35.10
2023-01-07T05:20:13.786Z,33.80
2023-01-07T05:23:15.556Z,34.00
2023-01-07T05:26:17.737Z,33.30
2023-01-07T05:29:19.347Z,36.10
2023-01-07T05:32:21.478Z,35.10
2023-01-07T05:35:23.421Z,33.40
2023-01-07T05:38:25.681Z,34.70
2023-01-07T05:41:27.764Z,33.20
2023-01-07T05:44:30.852Z,32.80
2023-01-07T05:47:32.534Z,34.90
2023-01-07T05:50:34.117Z,31.00
2023-01-07T05:53:35.841Z,32.90
2023-01-07T05:56:37.398Z,29.10
2023-01-07T05:59:39.161Z,35.80
2023-01-07T06:02:40.810Z,31.90
2023-01-07T06:05:42.571Z,32.70
2023-01-07T06:08:44.237Z,28.20
2023-01-07T06:11:45.817Z,30.90
2023-01-07T06:14:47.323Z,29.70
2023-01-07T06:17:48.879Z,34.60
2023-01-07T06:20:50.876Z,34.80
2023-01-07T06:23:52.536Z,32.20
2023-01-07T06:26:54.186Z,30.70
2023-01-07T06:29:55.745Z,31.70
2023-01-07T06:32:57.433Z,30.80
2023-01-07T06:35:59.061Z,30.90
2023-01-07T06:39:00.645Z,31.90
2023-01-07T06:42:02.382Z,29.90
2023-01-07T06:45:04.046Z,27.70
2023-01-07T06:48:05.925Z,31.10
2023-01-07T06:51:07.470Z,35.70
2023-01-07T06:54:09.233Z,34.20
2023-01-07T06:57:10.830Z,32.20
2023-01-07T07:00:12.754Z,30.80
2023-01-07T07:03:14.540Z,29.70
2023-01-07T07:06:16.277Z,28.90
2023-01-07T07:09:17.833Z,28.50
2023-01-07T07:12:19.815Z,36.60
2023-01-07T07:15:21.382Z,33.70
2023-01-07T07:18:23.115Z,31.80
2023-01-07T07:21:24.619Z,31.00
2023-01-07T07:24:26.228Z,32.70
2023-01-07T07:27:27.789Z,31.20
2023-01-07T07:30:45.646Z,31.50
2023-01-07T07:33:49.546Z,31.60
2023-01-07T07:36:51.138Z,34.50
2023-01-07T07:39:52.754Z,29.70
2023-01-07T07:43:10.966Z,31.60
2023-01-07T07:46:14.435Z,31.30
2023-01-07T07:49:16.081Z,29.40
2023-01-07T07:52:18.544Z,25.90
2023-01-07T07:55:26.374Z,25.60
2023-01-07T07:58:28.380Z,26.00
2023-01-07T08:01:30.194Z,29.70
2023-01-07T08:04:34.405Z,26.60
2023-01-07T08:07:37.673Z,26.00
2023-01-07T08:10:39.718Z,27.30
2023-01-07T08:13:41.424Z,24.70
2023-01-07T08:16:42.929Z,23.50
2023-01-07T08:19:44.601Z,25.90
2023-01-07T08:22:46.195Z,21.80
2023-01-07T08:25:47.882Z,20.70
2023-01-07T08:28:49.467Z,26.40
2023-01-07T08:31:51.836Z,25.00
2023-01-07T08:34:53.509Z,23.30
2023-01-07T08:38:04.948Z,24.80
2023-01-07T08:41:06.494Z,25.50
2023-01-07T08:44:08.260Z,24.60
2023-01-07T08:47:09.814Z,25.90
2023-01-07T08:50:11.426Z,30.40
2023-01-07T08:53:13.447Z,31.50
2023-01-07T08:56:15.305Z,26.30
2023-01-07T08:59:16.965Z,32.80
2023-01-07T09:02:19.621Z,26.20
2023-01-07T09:05:21.341Z,29.70
2023-01-07T09:08:22.972Z,28.50
2023-01-07T09:11:24.846Z,24.90
2023-01-07T09:14:26.496Z,22.90
2023-01-07T09:17:28.156Z,26.20
2023-01-07T09:20:30.221Z,25.00
2023-01-07T09:23:31.982Z,24.30
2023-01-07T09:26:33.986Z,22.80
2023-01-07T09:29:35.604Z,21.10
2023-01-07T09:32:37.285Z,26.20
2023-01-07T09:35:38.931Z,24.70
2023-01-07T09:38:40.793Z,26.00
2023-01-07T09:41:52.570Z,22.90
2023-01-07T09:44:54.173Z,25.00
2023-01-07T09:47:57.856Z,24.10
2023-01-07T09:51:02.524Z,27.30
2023-01-07T09:54:04.936Z,25.10
2023-01-07T09:57:08.823Z,24.00
2023-01-07T10:00:15.965Z,27.60
2023-01-07T10:03:26.033Z,26.60
2023-01-07T10:06:42.290Z,27.70
2023-01-07T10:09:50.860Z,22.70
2023-01-07T10:13:11.182Z,31.00
2023-01-07T10:16:33.631Z,26.00
2023-01-07T10:19:54.445Z,25.20
2023-01-07T10:23:17.586Z,26.20
2023-01-07T10:26:27.210Z,30.50
2023-01-07T10:29:34.502Z,25.50
2023-01-07T10:32:39.193Z,21.50
2023-01-07T10:35:41.402Z,23.30
2023-01-07T10:38:47.301Z,21.80
2023-01-07T10:42:09.816Z,25.50
2023-01-07T10:45:15.676Z,28.10
2023-01-07T10:48:17.245Z,22.90
2023-01-07T10:51:37.600Z,26.10
2023-01-07T10:54:48.502Z,23.50
2023-01-07T10:57:50.030Z,23.70
2023-01-07T11:00:51.954Z,28.50
2023-01-07T11:03:55.245Z,25.70
2023-01-07T11:06:59.215Z,20.70
2023-01-07T11:10:04.341Z,21.40
2023-01-07T11:13:14.230Z,25.50
2023-01-07T11:16:21.811Z,23.10
2023-01-07T11:19:39.977Z,22.80
2023-01-07T11:22:41.661Z,26.10
2023-01-07T11:25:43.505Z,25.10
2023-01-07T11:28:52.906Z,22.10
2023-01-07T11:31:59.340Z,23.60
2023-01-07T11:35:02.111Z,23.50
2023-01-07T11:38:23.732Z,24.10
2023-01-07T11:41:26.413Z,26.40
2023-01-07T11:44:28.015Z,24.00
2023-01-07T11:47:29.627Z,24.10
2023-01-07T11:50:33.954Z,24.60
2023-01-07T11:53:35.543Z,24.30
2023-01-07T11:56:37.146Z,27.30
2023-01-07T11:59:38.832Z,23.40
2023-01-07T12:02:40.654Z,27.80
2023-01-07T12:05:45.203Z,23.10
2023-01-07T12:08:54.353Z,24.80
2023-01-07T12:11:57.859Z,21.40
2023-01-07T12:15:00.830Z,23.40
2023-01-07T12:18:02.412Z,23.80
2023-01-07T12:21:26.958Z,26.80
2023-01-07T12:24:34.514Z,22.40
2023-01-07T12:27:59.275Z,23.90
2023-01-07T12:31:14.511Z,22.80
2023-01-07T12:34:40.710Z,21.20
2023-01-07T12:37:50.990Z,20.80
2023-01-07T12:40:52.734Z,20.90
2023-01-07T12:44:00.165Z,22.90
2023-01-07T12:47:31.321Z,27.30
2023-01-07T12:50:41.536Z,24.10
2023-01-07T12:53:49.857Z,30.90
2023-01-07T12:56:54.110Z,36.70
2023-01-07T13:00:04.657Z,22.50
2023-01-07T13:06:14.390Z,22.20
2023-01-07T13:09:18.370Z,24.00
2023-01-07T13:12:45.604Z,25.30
2023-01-07T13:15:48.271Z,21.10
2023-01-07T13:18:50.237Z,24.40
2023-01-07T13:21:52.411Z,25.00
2023-01-07T13:25:12.677Z,23.80
2023-01-07T13:28:26.448Z,25.50
2023-01-07T13:31:45.366Z,34.80
2023-01-07T13:34:56.497Z,26.20
2023-01-07T13:38:04.910Z,27.90
2023-01-07T13:41:06.463Z,23.90
2023-01-07T13:44:08.134Z,27.80
2023-01-07T13:47:11.738Z,21.90
2023-01-07T13:50:19.255Z,26.60
2023-01-07T13:53:20.735Z,25.00
2023-01-07T13:56:22.756Z,28.30
2023-01-07T13:59:28.003Z,26.70
2023-01-07T14:02:49.654Z,27.60
2023-01-07T14:06:11.254Z,28.20
2023-01-07T14:09:18.794Z,29.00
2023-01-07T14:12:23.172Z,31.40
2023-01-07T14:15:45.055Z,30.50
2023-01-07T14:18:53.127Z,30.70
2023-01-07T14:22:21.107Z,27.20
2023-01-07T14:25:33.522Z,27.10
2023-01-07T14:28:47.044Z,30.10
2023-01-07T14:31:50.956Z,40.50
2023-01-07T14:35:01.231Z,31.60
2023-01-07T14:38:22.848Z,29.60
2023-01-07T14:41:24.816Z,28.50
2023-01-07T14:44:27.640Z,29.00
2023-01-07T14:47:41.310Z,31.30
2023-01-07T14:51:01.770Z,32.30
2023-01-07T14:54:06.472Z,27.80
2023-01-07T14:57:26.365Z,29.30
2023-01-07T15:00:46.592Z,31.60
2023-01-07T15:03:50.824Z,32.50
2023-01-07T15:10:18.467Z,31.70
2023-01-07T15:13:39.698Z,28.10
2023-01-07T15:16:42.790Z,26.30
2023-01-07T15:19:44.641Z,33.40
2023-01-07T15:22:49.376Z,29.80
2023-01-07T15:26:09.281Z,27.40
2023-01-07T15:29:13.991Z,32.30
2023-01-07T15:32:34.484Z,29.70
2023-01-07T15:35:43.338Z,30.70
2023-01-07T15:38:50.611Z,32.00
2023-01-07T15:41:53.911Z,30.30
2023-01-07T15:44:56.696Z,28.90
2023-01-07T15:48:08.010Z,29.70
2023-01-07T15:51:16.769Z,29.20
2023-01-07T15:54:30.483Z,29.40
2023-01-07T15:57:34.562Z,30.20
2023-01-07T16:00:36.375Z,32.20
2023-01-07T16:03:39.319Z,33.80
2023-01-07T16:06:45.626Z,41.20
2023-01-07T16:09:47.372Z,30.80
2023-01-07T16:12:50.239Z,36.70
2023-01-07T16:15:57.744Z,34.70
2023-01-07T16:19:00.736Z,28.90
2023-01-07T16:22:03.215Z,39.10
2023-01-07T16:25:08.155Z,33.50
2023-01-07T16:28:21.423Z,31.10
2023-01-07T16:31:24.823Z,33.80
2023-01-07T16:34:26.534Z,38.50
2023-01-07T16:37:28.708Z,37.60
2023-01-07T16:40:33.543Z,38.00
2023-01-07T16:43:43.431Z,38.90
2023-01-07T16:47:03.644Z,31.90
2023-01-07T16:50:14.787Z,37.20
2023-01-07T16:53:34.434Z,36.30
2023-01-07T16:56:36.110Z,32.30
2023-01-07T16:59:53.819Z,31.40
2023-01-07T17:02:58.722Z,34.80
2023-01-07T17:06:06.396Z,35.60
2023-01-07T17:09:25.248Z,36.30
2023-01-07T17:12:30.243Z,33.00
2023-01-07T17:15:31.819Z,32.80
2023-01-07T17:18:53.834Z,29.50
2023-01-07T17:21:56.767Z,34.50
2023-01-07T17:25:03.001Z,35.10
2023-01-07T17:28:08.383Z,39.10
2023-01-07T17:31:10.231Z,29.40
2023-01-07T17:34:12.490Z,31.80
2023-01-07T17:37:15.087Z,36.30
2023-01-07T17:40:17.077Z,32.40
2023-01-07T17:43:34.953Z,31.50
2023-01-07T17:46:36.774Z,29.20
2023-01-07T17:49:38.327Z,32.30
2023-01-07T17:52:41.934Z,32.50
2023-01-07T17:55:43.628Z,32.00
2023-01-07T17:58:45.252Z,36.90
2023-01-07T18:01:47.246Z,33.10
2023-01-07T18:04:48.983Z,41.20
2023-01-07T18:07:51.799Z,38.70
2023-01-07T18:11:13.194Z,33.80
2023-01-07T18:14:15.388Z,32.30
2023-01-07T18:17:16.931Z,34.50
2023-01-07T18:20:19.704Z,32.50
2023-01-07T18:23:22.335Z,30.40
2023-01-07T18:26:24.787Z,34.40
2023-01-07T18:29:26.424Z,32.90
2023-01-07T18:32:27.923Z,34.80
2023-01-07T18:35:29.838Z,29.60
2023-01-07T18:38:31.506Z,34.70
2023-01-07T18:41:34.493Z,32.20
2023-01-07T18:44:36.078Z,36.20
2023-01-07T18:47:37.682Z,36.00
2023-01-07T18:50:43.179Z,34.80
2023-01-07T18:53:48.173Z,37.20
2023-01-07T18:56:51.115Z,28.50
2023-01-07T18:59:52.671Z,31.40
2023-01-07T19:02:54.507Z,32.50
2023-01-07T19:05:56.209Z,34.60
2023-01-07T19:08:57.827Z,29.50
2023-01-07T19:11:59.493Z,32.10
2023-01-07T19:15:01.061Z,35.20
2023-01-07T19:18:02.718Z,32.80
2023-01-07T19:21:05.285Z,34.00
2023-01-07T19:24:07.117Z,30.40
2023-01-07T19:27:08.825Z,27.10
2023-01-07T19:30:10.731Z,30.80
2023-01-07T19:33:12.333Z,34.30
2023-01-07T19:36:15.008Z,34.60
2023-01-07T19:39:18.825Z,33.20
2023-01-07T19:42:20.486Z,33.90
2023-01-07T19:45:22.028Z,32.50
2023-01-07T19:48:23.807Z,37.70
2023-01-07T19:51:25.824Z,28.40
2023-01-07T19:54:33.025Z,32.30
2023-01-07T19:57:34.723Z,29.30
2023-01-07T20:00:36.275Z,35.10
2023-01-07T20:03:40.843Z,34.70
2023-01-07T20:06:42.529Z,30.80
2023-01-07T20:09:44.231Z,38.50
2023-01-07T20:12:45.800Z,35.20
2023-01-07T20:15:47.856Z,32.10
2023-01-07T20:18:50.890Z,36.30
2023-01-07T20:21:52.612Z,33.20
2023-01-07T20:24:54.174Z,34.30
2023-01-07T20:27:55.813Z,40.30
2023-01-07T20:30:59.327Z,38.70
2023-01-07T20:34:01.323Z,27.50
2023-01-07T20:37:02.909Z,37.40
2023-01-07T20:40:04.974Z,30.20
2023-01-07T20:43:06.982Z,37.40
2023-01-07T20:46:08.656Z,32.30
2023-01-07T20:49:12.540Z,34.40
2023-01-07T20:52:14.220Z,34.60
2023-01-07T20:55:15.882Z,35.90
2023-01-07T20:58:28.608Z,35.90
2023-01-07T21:01:30.512Z,38.70
2023-01-07T21:04:32.345Z,34.70
2023-01-07T21:07:34.651Z,34.00
2023-01-07T21:10:40.857Z,35.10
2023-01-07T21:13:42.857Z,34.20
2023-01-07T21:16:44.546Z,33.70
2023-01-07T21:19:49.113Z,32.10
2023-01-07T21:22:50.686Z,33.40
2023-01-07T21:25:52.650Z,38.40
2023-01-07T21:28:56.258Z,38.40
2023-01-07T21:32:01.089Z,31.50
2023-01-07T21:35:05.959Z,35.70
2023-01-07T21:38:07.753Z,39.70
2023-01-07T21:41:11.106Z,40.10
2023-01-07T21:44:12.918Z,42.70
2023-01-07T21:47:14.506Z,38.80
2023-01-07T21:50:16.887Z,34.80
2023-01-07T21:53:18.860Z,39.90
2023-01-07T21:56:20.485Z,39.10
2023-01-07T21:59:22.784Z,39.10
2023-01-07T22:02:24.962Z,37.00
2023-01-07T22:05:27.029Z,39.00
2023-01-07T22:08:28.568Z,35.30
2023-01-07T22:11:30.346Z,32.40
2023-01-07T22:14:32.217Z,34.30
2023-01-07T22:17:34.819Z,39.90
2023-01-07T22:20:36.594Z,36.50
2023-01-07T22:23:38.423Z,41.40
2023-01-07T22:26:41.338Z,37.60
2023-01-07T22:29:44.659Z,37.40
2023-01-07T22:32:46.262Z,36.40
2023-01-07T22:35:48.546Z,31.80
2023-01-07T22:38:50.947Z,33.00
2023-01-07T22:41:56.065Z,37.10
2023-01-07T22:45:24.136Z,38.50
2023-01-07T22:48:27.532Z,41.40
2023-01-07T22:51:37.931Z,38.70
2023-01-07T22:54:40.583Z,35.50
2023-01-07T22:57:42.211Z,36.80
2023-01-07T23:00:54.895Z,36.80
2023-01-07T23:03:56.558Z,33.90
2023-01-07T23:06:58.176Z,42.10
2023-01-07T23:09:59.734Z,35.30
2023-01-07T23:13:01.395Z,39.00
2023-01-07T23:16:04.023Z,39.40
2023-01-07T23:19:05.963Z,42.80
2023-01-07T23:22:07.504Z,32.70
2023-01-07T23:25:09.282Z,44.10
2023-01-07T23:28:10.827Z,42.10
2023-01-07T23:31:12.481Z,40.70
2023-01-07T23:34:14.980Z,40.10
2023-01-07T23:37:19.511Z,40.80
2023-01-07T23:40:21.146Z,37.10
2023-01-07T23:43:22.676Z,36.50
2023-01-07T23:46:24.363Z,37.70
2023-01-07T23:49:25.938Z,36.30
2023-01-07T23:52:27.910Z,36.50
2023-01-07T23:55:29.550Z,40.30
2023-01-07T23:58:31.740Z,38.70
